createdAt,value
2022-07-28T00:00:08.297Z,15.62
2022-07-28T00:01:08.132Z,15.66
2022-07-28T00:02:08.418Z,15.65
2022-07-28T00:03:08.755Z,15.65
2022-07-28T00:04:08.882Z,15.66
2022-07-28T00:05:09.120Z,15.67
2022-07-28T00:06:09.359Z,15.67
2022-07-28T00:07:09.603Z,15.67
2022-07-28T00:08:09.840Z,15.67
2022-07-28T00:09:10.081Z,15.67
2022-07-28T00:10:10.319Z,15.70
2022-07-28T00:11:10.569Z,15.67
2022-07-28T00:12:10.826Z,15.66
2022-07-28T00:13:11.069Z,15.66
2022-07-28T00:14:11.641Z,15.66
2022-07-28T00:15:11.503Z,15.67
2022-07-28T00:16:11.787Z,15.65
2022-07-28T00:17:12.033Z,15.66
2022-07-28T00:18:12.274Z,15.65
2022-07-28T00:19:12.499Z,15.63
2022-07-28T00:20:12.728Z,15.60
2022-07-28T00:21:12.965Z,15.60
2022-07-28T00:22:13.212Z,15.59
2022-07-28T00:23:13.445Z,15.57
2022-07-28T00:24:14.077Z,15.54
2022-07-28T00:25:13.911Z,15.50
2022-07-28T00:26:14.146Z,15.45
2022-07-28T00:27:14.406Z,15.45
2022-07-28T00:28:14.644Z,15.44
2022-07-28T00:29:14.925Z,15.43
2022-07-28T00:30:15.169Z,15.43
2022-07-28T00:31:15.520Z,15.41
2022-07-28T00:32:15.724Z,15.39
2022-07-28T00:33:15.967Z,15.39
2022-07-28T00:34:16.569Z,15.39
2022-07-28T00:35:16.478Z,15.37
2022-07-28T00:36:17.654Z,15.36
2022-07-28T00:37:16.906Z,15.35
2022-07-28T00:38:17.157Z,15.33
2022-07-28T00:39:17.385Z,15.33
2022-07-28T00:40:17.617Z,15.30
2022-07-28T00:41:17.845Z,15.26
2022-07-28T00:42:18.100Z,15.22
2022-07-28T00:43:18.335Z,15.22
2022-07-28T00:44:18.581Z,15.22
2022-07-28T00:45:18.815Z,15.19
2022-07-28T00:46:19.114Z,15.17
2022-07-28T00:47:19.304Z,15.15
2022-07-28T00:48:19.530Z,15.12
2022-07-28T00:49:19.837Z,15.10
2022-07-28T00:50:19.975Z,15.05
2022-07-28T00:51:20.211Z,15.00
2022-07-28T00:52:20.468Z,14.97
2022-07-28T00:53:20.703Z,14.96
2022-07-28T00:54:20.943Z,14.96
2022-07-28T00:55:21.188Z,14.97
2022-07-28T00:56:21.442Z,14.96
2022-07-28T00:57:21.677Z,14.94
2022-07-28T00:58:21.933Z,14.94
2022-07-28T00:59:22.178Z,14.94
2022-07-28T01:00:22.419Z,14.94
2022-07-28T01:01:22.760Z,14.93
2022-07-28T01:02:23.023Z,14.93
2022-07-28T01:03:23.203Z,14.90
2022-07-28T01:04:23.442Z,14.85
2022-07-28T01:05:44.170Z,14.82
2022-07-28T01:06:24.900Z,14.85
2022-07-28T01:07:24.150Z,14.85
2022-07-28T01:08:24.401Z,14.86
2022-07-28T01:09:24.659Z,14.85
2022-07-28T01:10:24.897Z,14.85
2022-07-28T01:11:25.149Z,14.87
2022-07-28T01:12:25.394Z,14.86
2022-07-28T01:13:27.867Z,14.87
2022-07-28T01:14:25.876Z,14.85
2022-07-28T01:15:26.128Z,14.85
2022-07-28T01:16:26.474Z,14.81
2022-07-28T01:17:26.652Z,14.79
2022-07-28T01:18:26.897Z,14.79
2022-07-28T01:19:27.149Z,14.77
2022-07-28T01:20:27.390Z,14.77
2022-07-28T01:21:27.639Z,14.74
2022-07-28T01:22:27.894Z,14.74
2022-07-28T01:23:28.231Z,14.74
2022-07-28T01:24:28.391Z,14.74
2022-07-28T01:25:28.650Z,14.74
2022-07-28T01:26:28.890Z,14.71
2022-07-28T01:27:29.145Z,14.66
2022-07-28T01:28:29.376Z,14.62
2022-07-28T01:29:29.626Z,14.62
2022-07-28T01:30:29.868Z,14.62
2022-07-28T01:31:30.147Z,14.62
2022-07-28T01:32:30.417Z,14.63
2022-07-28T01:33:30.657Z,14.62
2022-07-28T01:34:30.891Z,14.61
2022-07-28T01:35:31.137Z,14.61
2022-07-28T01:36:31.369Z,14.61
2022-07-28T01:37:31.630Z,14.59
2022-07-28T01:38:31.871Z,14.58
2022-07-28T01:39:32.105Z,14.58
2022-07-28T01:40:32.346Z,14.53
2022-07-28T01:41:32.583Z,14.48
2022-07-28T01:42:32.839Z,14.41
2022-07-28T01:43:33.080Z,14.43
2022-07-28T01:44:33.315Z,14.43
2022-07-28T01:45:33.567Z,14.44
2022-07-28T01:46:33.857Z,14.45
2022-07-28T01:47:34.151Z,14.43
2022-07-28T01:48:34.447Z,14.41
2022-07-28T01:49:34.613Z,14.36
2022-07-28T01:50:34.855Z,14.28
2022-07-28T01:51:35.099Z,14.22
2022-07-28T01:52:35.371Z,14.19
2022-07-28T01:53:38.177Z,14.12
2022-07-28T01:54:35.897Z,14.07
2022-07-28T01:55:36.143Z,14.07
2022-07-28T01:56:36.377Z,14.08
2022-07-28T01:57:36.635Z,14.08
2022-07-28T01:58:36.878Z,14.12
2022-07-28T01:59:37.118Z,14.12
2022-07-28T02:00:37.371Z,14.08
2022-07-28T02:01:37.678Z,14.04
2022-07-28T02:02:37.923Z,14.01
2022-07-28T02:03:38.172Z,14.01
2022-07-28T02:04:38.468Z,13.98
2022-07-28T02:05:38.702Z,14.00
2022-07-28T02:06:38.946Z,13.98
2022-07-28T02:07:39.201Z,14.00
2022-07-28T02:08:39.449Z,14.01
2022-07-28T02:09:39.691Z,14.01
2022-07-28T02:10:39.951Z,13.98
2022-07-28T02:11:40.209Z,13.95
2022-07-28T02:12:40.471Z,13.94
2022-07-28T02:13:40.720Z,13.91
2022-07-28T02:14:40.963Z,13.87
2022-07-28T02:15:41.246Z,13.86
2022-07-28T02:16:41.511Z,13.83
2022-07-28T02:17:41.764Z,13.78
2022-07-28T02:18:42.010Z,13.75
2022-07-28T02:19:42.250Z,13.71
2022-07-28T02:20:42.484Z,13.70
2022-07-28T02:21:42.726Z,13.68
2022-07-28T02:22:42.987Z,13.64
2022-07-28T02:23:43.232Z,13.64
2022-07-28T02:24:43.471Z,13.62
2022-07-28T02:25:43.714Z,13.61
2022-07-28T02:26:43.957Z,13.58
2022-07-28T02:27:44.219Z,13.58
2022-07-28T02:28:44.466Z,13.58
2022-07-28T02:29:52.167Z,13.58
2022-07-28T02:30:46.042Z,13.61
2022-07-28T02:31:45.267Z,13.61
2022-07-28T02:32:45.533Z,13.60
2022-07-28T02:33:58.649Z,13.60
2022-07-28T02:34:47.080Z,13.57
2022-07-28T02:35:46.340Z,13.57
2022-07-28T02:36:46.601Z,13.58
2022-07-28T02:37:46.858Z,13.62
2022-07-28T02:38:47.115Z,13.62
2022-07-28T02:39:59.974Z,13.64
2022-07-28T02:40:48.582Z,13.64
2022-07-28T02:41:47.834Z,13.62
2022-07-28T02:42:48.102Z,13.61
2022-07-28T02:43:49.695Z,13.60
2022-07-28T02:44:48.621Z,13.58
2022-07-28T02:45:55.827Z,13.58
2022-07-28T02:46:49.133Z,13.60
2022-07-28T02:47:49.410Z,13.62
2022-07-28T02:48:49.711Z,13.67
2022-07-28T02:49:49.984Z,13.67
2022-07-28T02:50:50.233Z,13.70
2022-07-28T02:51:50.483Z,13.70
2022-07-28T02:52:50.748Z,13.71
2022-07-28T02:53:50.998Z,13.73
2022-07-28T02:54:51.243Z,13.73
2022-07-28T02:55:51.505Z,13.75
2022-07-28T02:56:53.729Z,13.76
2022-07-28T02:57:56.349Z,13.78
2022-07-28T02:58:52.347Z,13.79
2022-07-28T02:59:52.604Z,13.79
2022-07-28T03:00:52.847Z,13.79
2022-07-28T03:01:53.170Z,13.80
2022-07-28T03:02:53.315Z,13.79
2022-07-28T03:03:55.440Z,13.82
2022-07-28T03:04:53.952Z,13.80
2022-07-28T03:05:54.082Z,13.80
2022-07-28T03:06:54.344Z,13.80
2022-07-28T03:07:57.556Z,13.79
2022-07-28T03:08:54.902Z,13.79
2022-07-28T03:09:55.151Z,13.78
2022-07-28T03:10:55.401Z,13.78
2022-07-28T03:11:55.659Z,13.78
2022-07-28T03:12:55.911Z,13.78
2022-07-28T03:13:56.169Z,13.76
2022-07-28T03:14:56.421Z,13.75
2022-07-28T03:15:56.681Z,13.75
2022-07-28T03:16:56.981Z,13.71
2022-07-28T03:17:57.205Z,13.71
2022-07-28T03:19:06.208Z,13.71
2022-07-28T03:20:00.455Z,13.71
2022-07-28T03:20:59.677Z,13.70
2022-07-28T03:21:58.256Z,13.67
2022-07-28T03:22:58.582Z,13.65
2022-07-28T03:23:58.805Z,13.60
2022-07-28T03:24:59.061Z,13.57
2022-07-28T03:25:59.266Z,13.58
2022-07-28T03:26:59.520Z,13.57
2022-07-28T03:27:59.793Z,13.57
2022-07-28T03:29:00.057Z,13.57
2022-07-28T03:30:03.580Z,13.57
2022-07-28T03:31:00.622Z,13.57
2022-07-28T03:32:00.808Z,13.58
2022-07-28T03:33:01.086Z,13.57
2022-07-28T03:34:01.332Z,13.57
2022-07-28T03:35:01.577Z,13.55
2022-07-28T03:36:01.823Z,13.54
2022-07-28T03:37:02.074Z,13.50
2022-07-28T03:38:02.343Z,13.49
2022-07-28T03:39:02.581Z,13.50
2022-07-28T03:40:02.898Z,13.49
2022-07-28T03:41:03.110Z,13.47
2022-07-28T03:42:03.357Z,13.52
2022-07-28T03:43:07.040Z,13.50
2022-07-28T03:44:03.822Z,13.52
2022-07-28T03:45:04.094Z,13.52
2022-07-28T03:46:05.223Z,13.54
2022-07-28T03:47:04.629Z,13.54
2022-07-28T03:48:04.885Z,13.54
2022-07-28T03:49:05.182Z,13.54
2022-07-28T03:50:05.382Z,13.52
2022-07-28T03:51:05.611Z,13.49
2022-07-28T03:52:05.854Z,13.50
2022-07-28T03:53:06.105Z,13.49
2022-07-28T03:54:06.360Z,13.52
2022-07-28T03:55:06.610Z,13.52
2022-07-28T03:56:06.858Z,13.54
2022-07-28T03:57:14.061Z,13.55
2022-07-28T03:58:07.385Z,13.58
2022-07-28T03:59:07.676Z,13.60
2022-07-28T04:00:09.872Z,13.61
2022-07-28T04:01:08.250Z,13.64
2022-07-28T04:02:08.527Z,13.64
2022-07-28T04:03:35.773Z,13.65
2022-07-28T04:04:10.099Z,13.68
2022-07-28T04:05:09.341Z,13.68
2022-07-28T04:06:09.587Z,13.71
2022-07-28T04:07:09.836Z,13.71
2022-07-28T04:08:10.085Z,13.75
2022-07-28T04:09:10.352Z,13.78
2022-07-28T04:10:10.598Z,13.79
2022-07-28T04:11:10.848Z,13.82
2022-07-28T04:12:11.085Z,13.83
2022-07-28T04:13:11.340Z,13.85
2022-07-28T04:14:16.476Z,13.86
2022-07-28T04:15:12.790Z,13.87
2022-07-28T04:16:12.095Z,13.93
2022-07-28T04:17:12.291Z,13.95
2022-07-28T04:18:12.534Z,14.00
2022-07-28T04:19:12.800Z,14.05
2022-07-28T04:20:13.042Z,14.07
2022-07-28T04:21:13.287Z,14.12
2022-07-28T04:22:13.551Z,14.13
2022-07-28T04:23:13.795Z,14.13
2022-07-28T04:24:14.500Z,14.13
2022-07-28T04:25:14.246Z,14.18
2022-07-28T04:26:14.495Z,14.19
2022-07-28T04:27:14.743Z,14.20
2022-07-28T04:28:14.986Z,14.25
2022-07-28T04:29:15.249Z,14.25
2022-07-28T04:30:16.454Z,14.28
2022-07-28T04:31:15.726Z,14.31
2022-07-28T04:32:15.951Z,14.36
2022-07-28T04:33:16.195Z,14.38
2022-07-28T04:34:16.982Z,14.41
2022-07-28T04:35:17.704Z,14.45
2022-07-28T04:36:17.048Z,14.51
2022-07-28T04:37:17.298Z,14.53
2022-07-28T04:38:17.537Z,14.59
2022-07-28T04:39:17.801Z,14.62
2022-07-28T04:40:18.054Z,14.67
2022-07-28T04:41:18.292Z,14.70
2022-07-28T04:42:18.533Z,14.73
2022-07-28T04:43:18.773Z,14.77
2022-07-28T04:44:19.032Z,14.81
2022-07-28T04:45:19.275Z,14.86
2022-07-28T04:46:19.559Z,14.87
2022-07-28T04:47:19.798Z,14.93
2022-07-28T04:48:20.039Z,14.96
2022-07-28T04:49:20.338Z,15.00
2022-07-28T04:50:20.479Z,15.04
2022-07-28T04:51:20.733Z,15.08
2022-07-28T04:52:20.960Z,15.11
2022-07-28T04:53:21.207Z,15.15
2022-07-28T04:54:26.344Z,15.22
2022-07-28T04:55:22.677Z,15.26
2022-07-28T04:56:21.911Z,15.30
2022-07-28T04:57:22.149Z,15.33
2022-07-28T04:58:22.611Z,15.36
2022-07-28T04:59:22.673Z,15.39
2022-07-28T05:00:23.190Z,15.47
2022-07-28T05:01:23.118Z,15.51
2022-07-28T05:02:23.359Z,15.55
2022-07-28T05:03:23.606Z,15.59
2022-07-28T05:04:23.847Z,15.63
2022-07-28T05:05:24.090Z,15.67
2022-07-28T05:06:24.325Z,15.70
2022-07-28T05:07:24.566Z,15.75
2022-07-28T05:08:25.713Z,15.78
2022-07-28T05:09:25.043Z,15.76
2022-07-28T05:10:25.283Z,15.81
2022-07-28T05:11:25.524Z,15.84
2022-07-28T05:12:25.759Z,15.88
2022-07-28T05:13:30.357Z,15.90
2022-07-28T05:14:27.323Z,15.90
2022-07-28T05:15:26.555Z,15.96
2022-07-28T05:16:26.821Z,15.98
2022-07-28T05:17:27.036Z,16.00
2022-07-28T05:18:27.275Z,16.03
2022-07-28T05:19:27.538Z,16.09
2022-07-28T05:20:27.772Z,16.08
2022-07-28T05:21:28.007Z,16.12
2022-07-28T05:22:28.251Z,16.17
2022-07-28T05:23:28.485Z,16.21
2022-07-28T05:24:28.735Z,16.26
2022-07-28T05:25:28.970Z,16.31
2022-07-28T05:26:29.200Z,16.36
2022-07-28T05:27:29.436Z,16.41
2022-07-28T05:28:29.674Z,16.47
2022-07-28T05:29:35.147Z,16.51
2022-07-28T05:30:31.108Z,16.58
2022-07-28T05:31:30.422Z,16.59
2022-07-28T05:32:30.539Z,16.65
2022-07-28T05:33:31.980Z,16.69
2022-07-28T05:34:31.072Z,16.73
2022-07-28T05:35:31.303Z,16.77
2022-07-28T05:36:31.532Z,16.80
2022-07-28T05:37:31.765Z,16.87
2022-07-28T05:38:31.987Z,16.95
2022-07-28T05:39:32.236Z,17.01
2022-07-28T05:40:32.456Z,17.07
2022-07-28T05:41:32.674Z,17.09
2022-07-28T05:42:32.894Z,17.09
2022-07-28T05:43:33.118Z,17.10
2022-07-28T05:44:37.877Z,17.16
2022-07-28T05:45:34.618Z,17.23
2022-07-28T05:46:33.718Z,17.30
2022-07-28T05:47:33.942Z,17.35
2022-07-28T05:48:34.208Z,17.42
2022-07-28T05:49:34.432Z,17.42
2022-07-28T05:50:34.647Z,17.46
2022-07-28T05:51:38.398Z,17.47
2022-07-28T05:52:36.043Z,17.53
2022-07-28T05:53:35.263Z,17.53
2022-07-28T05:54:35.508Z,17.54
2022-07-28T05:55:35.740Z,17.56
2022-07-28T05:56:36.920Z,17.60
2022-07-28T05:57:36.140Z,17.60
2022-07-28T05:58:36.370Z,17.60
2022-07-28T05:59:36.608Z,17.66
2022-07-28T06:00:36.764Z,17.65
2022-07-28T06:01:37.034Z,17.59
2022-07-28T06:02:37.329Z,17.66
2022-07-28T06:03:42.036Z,17.73
2022-07-28T06:04:38.799Z,17.79
2022-07-28T06:06:11.547Z,17.84
2022-07-28T06:06:39.203Z,17.90
2022-07-28T06:07:43.659Z,17.97
2022-07-28T06:08:42.586Z,18.09
2022-07-28T06:09:43.316Z,18.23
2022-07-28T06:10:39.959Z,18.28
2022-07-28T06:11:39.176Z,18.31
2022-07-28T06:12:39.411Z,18.27
2022-07-28T06:13:39.636Z,18.36
2022-07-28T06:14:39.856Z,18.46
2022-07-28T06:15:40.084Z,18.58
2022-07-28T06:16:40.330Z,18.73
2022-07-28T06:17:40.584Z,18.85
2022-07-28T06:18:40.810Z,18.96
2022-07-28T06:19:41.020Z,19.12
2022-07-28T06:20:41.241Z,19.23
2022-07-28T06:21:41.527Z,19.29
2022-07-28T06:22:41.728Z,19.35
2022-07-28T06:23:41.940Z,19.44
2022-07-28T06:24:42.152Z,19.59
2022-07-28T06:25:42.376Z,19.78
2022-07-28T06:26:44.945Z,19.94
2022-07-28T06:27:42.760Z,20.11
2022-07-28T06:28:42.964Z,20.21
2022-07-28T06:29:43.172Z,20.36
2022-07-28T06:30:43.391Z,20.39
2022-07-28T06:31:43.630Z,20.52
2022-07-28T06:32:43.844Z,20.67
2022-07-28T06:33:44.043Z,20.82
2022-07-28T06:34:44.251Z,21.01
2022-07-28T06:35:50.034Z,21.14
2022-07-28T06:36:45.651Z,21.35
2022-07-28T06:37:44.863Z,21.53
2022-07-28T06:38:45.052Z,21.53
2022-07-28T06:39:45.255Z,21.58
2022-07-28T06:40:45.454Z,21.60
2022-07-28T06:41:45.635Z,21.68
2022-07-28T06:42:45.826Z,21.85
2022-07-28T06:43:46.036Z,22.01
2022-07-28T06:44:58.245Z,22.18
2022-07-28T06:45:47.473Z,22.14
2022-07-28T06:46:46.704Z,21.81
2022-07-28T06:47:47.939Z,21.54
2022-07-28T06:48:47.208Z,21.59
2022-07-28T06:49:47.357Z,21.81
2022-07-28T06:50:47.547Z,22.18
2022-07-28T06:51:47.728Z,22.47
2022-07-28T06:52:47.915Z,22.62
2022-07-28T06:53:48.118Z,22.81
2022-07-28T06:54:48.722Z,22.98
2022-07-28T06:55:49.986Z,22.88
2022-07-28T06:56:49.426Z,22.86
2022-07-28T06:57:48.812Z,22.89
2022-07-28T06:58:48.999Z,22.86
2022-07-28T06:59:49.170Z,22.68
2022-07-28T07:00:49.418Z,22.74
2022-07-28T07:01:49.568Z,22.76
2022-07-28T07:02:49.744Z,22.61
2022-07-28T07:03:49.951Z,22.30
2022-07-28T07:04:50.117Z,22.23
2022-07-28T07:05:52.259Z,22.37
2022-07-28T07:06:50.442Z,22.40
2022-07-28T07:07:50.634Z,22.65
2022-07-28T07:08:50.802Z,23.04
2022-07-28T07:09:50.966Z,23.37
2022-07-28T07:10:51.141Z,23.64
2022-07-28T07:11:51.327Z,23.96
2022-07-28T07:12:51.478Z,24.25
2022-07-28T07:13:51.648Z,24.01
2022-07-28T07:14:51.815Z,23.70
2022-07-28T07:15:52.063Z,23.88
2022-07-28T07:16:52.208Z,24.06
2022-07-28T07:17:52.387Z,24.28
2022-07-28T07:18:52.553Z,24.11
2022-07-28T07:19:52.727Z,24.51
2022-07-28T07:20:52.918Z,24.92
2022-07-28T07:21:53.117Z,25.09
2022-07-28T07:22:53.284Z,24.88
2022-07-28T07:23:53.446Z,25.01
2022-07-28T07:24:56.814Z,24.94
2022-07-28T07:25:53.838Z,24.86
2022-07-28T07:26:54.008Z,25.03
2022-07-28T07:27:54.181Z,25.19
2022-07-28T07:28:54.347Z,25.56
2022-07-28T07:29:54.511Z,25.46
2022-07-28T07:30:54.687Z,25.51
2022-07-28T07:31:54.918Z,25.36
2022-07-28T07:32:55.072Z,25.43
2022-07-28T07:33:55.218Z,25.68
2022-07-28T07:34:55.384Z,25.88
2022-07-28T07:35:55.575Z,26.22
2022-07-28T07:36:55.723Z,26.49
2022-07-28T07:37:55.896Z,26.83
2022-07-28T07:38:56.051Z,26.96
2022-07-28T07:39:56.208Z,26.60
2022-07-28T07:40:56.391Z,26.37
2022-07-28T07:41:56.539Z,25.78
2022-07-28T07:42:56.639Z,25.40
2022-07-28T07:43:56.824Z,25.52
2022-07-28T07:44:56.978Z,25.66
2022-07-28T07:45:57.159Z,25.74
2022-07-28T07:46:57.365Z,26.15
2022-07-28T07:47:57.420Z,26.56
2022-07-28T07:48:57.630Z,26.66
2022-07-28T07:49:57.672Z,26.86
2022-07-28T07:50:57.827Z,26.91
2022-07-28T07:51:57.972Z,27.22
2022-07-28T07:52:58.138Z,27.29
2022-07-28T07:53:58.270Z,26.83
2022-07-28T07:54:58.414Z,26.03
2022-07-28T07:55:58.560Z,25.92
2022-07-28T07:56:58.696Z,25.92
2022-07-28T07:57:58.832Z,25.99
2022-07-28T07:58:58.958Z,25.89
2022-07-28T07:59:59.103Z,25.73
2022-07-28T08:00:59.263Z,25.91
2022-07-28T08:01:59.445Z,26.03
2022-07-28T08:02:59.484Z,26.11
2022-07-28T08:03:59.711Z,26.26
2022-07-28T08:04:59.740Z,26.13
2022-07-28T08:05:59.800Z,25.43
2022-07-28T08:06:59.938Z,25.31
2022-07-28T08:08:00.071Z,25.14
2022-07-28T08:09:00.210Z,24.66
2022-07-28T08:10:00.353Z,23.89
2022-07-28T08:11:00.508Z,23.49
2022-07-28T08:12:00.656Z,23.39
2022-07-28T08:13:00.810Z,23.47
2022-07-28T08:14:00.960Z,23.56
2022-07-28T08:15:01.076Z,23.63
2022-07-28T08:16:01.296Z,23.52
2022-07-28T08:17:01.339Z,24.04
2022-07-28T08:18:01.467Z,24.26
2022-07-28T08:19:01.620Z,24.03
2022-07-28T08:20:01.762Z,23.96
2022-07-28T08:21:01.919Z,24.28
2022-07-28T08:22:02.053Z,24.74
2022-07-28T08:23:02.191Z,25.12
2022-07-28T08:24:02.339Z,25.71
2022-07-28T08:25:02.464Z,25.80
2022-07-28T08:26:02.605Z,25.43
2022-07-28T08:27:02.750Z,25.19
2022-07-28T08:28:05.401Z,25.18
2022-07-28T08:29:02.970Z,25.48
2022-07-28T08:30:03.123Z,26.04
2022-07-28T08:31:03.308Z,26.61
2022-07-28T08:32:03.320Z,26.91
2022-07-28T08:33:03.449Z,27.20
2022-07-28T08:34:03.573Z,26.81
2022-07-28T08:35:30.278Z,26.46
2022-07-28T08:36:04.784Z,25.83
2022-07-28T08:37:03.902Z,25.16
2022-07-28T08:38:04.032Z,24.71
2022-07-28T08:39:04.173Z,24.66
2022-07-28T08:40:15.921Z,24.55
2022-07-28T08:41:04.428Z,24.74
2022-07-28T08:42:04.551Z,24.92
2022-07-28T08:43:04.672Z,24.63
2022-07-28T08:44:04.798Z,24.66
2022-07-28T08:45:04.936Z,25.04
2022-07-28T08:46:05.115Z,25.04
2022-07-28T08:47:05.239Z,25.19
2022-07-28T08:48:08.870Z,25.52
2022-07-28T08:49:05.476Z,25.46
2022-07-28T08:50:05.589Z,25.07
2022-07-28T08:51:05.710Z,24.89
2022-07-28T08:52:05.842Z,24.71
2022-07-28T08:53:05.983Z,24.53
2022-07-28T08:54:06.108Z,24.61
2022-07-28T08:55:06.252Z,24.79
2022-07-28T08:56:06.375Z,24.56
2022-07-28T08:57:06.527Z,24.61
2022-07-28T08:58:06.660Z,24.71
2022-07-28T08:59:06.792Z,25.18
2022-07-28T09:00:06.957Z,25.68
2022-07-28T09:01:07.073Z,26.26
2022-07-28T09:02:07.228Z,26.76
2022-07-28T09:03:07.443Z,27.04
2022-07-28T09:04:07.466Z,27.44
2022-07-28T09:05:07.582Z,27.58
2022-07-28T09:06:07.697Z,27.72
2022-07-28T09:07:07.824Z,27.60
2022-07-28T09:08:07.932Z,26.88
2022-07-28T09:09:08.044Z,26.96
2022-07-28T09:10:08.156Z,27.11
2022-07-28T09:11:08.303Z,27.30
2022-07-28T09:12:08.434Z,27.35
2022-07-28T09:13:08.553Z,27.41
2022-07-28T09:14:08.674Z,27.13
2022-07-28T09:15:08.776Z,27.00
2022-07-28T09:16:08.937Z,27.07
2022-07-28T09:17:09.040Z,27.10
2022-07-28T09:18:09.142Z,27.04
2022-07-28T09:19:16.262Z,27.26
2022-07-28T09:20:11.239Z,27.33
2022-07-28T09:21:09.479Z,27.13
2022-07-28T09:22:09.599Z,27.29
2022-07-28T09:23:42.132Z,27.19
2022-07-28T09:24:10.780Z,27.25
2022-07-28T09:25:09.848Z,27.40
2022-07-28T09:26:12.378Z,27.37
2022-07-28T09:27:10.010Z,26.91
2022-07-28T09:28:10.083Z,26.45
2022-07-28T09:29:10.194Z,26.18
2022-07-28T09:30:10.282Z,26.11
2022-07-28T09:31:10.423Z,25.92
2022-07-28T09:32:10.418Z,25.81
2022-07-28T09:33:10.515Z,25.95
2022-07-28T09:34:11.699Z,26.26
2022-07-28T09:35:10.674Z,26.13
2022-07-28T09:36:10.797Z,25.78
2022-07-28T09:37:10.915Z,25.37
2022-07-28T09:38:12.357Z,25.22
2022-07-28T09:39:11.083Z,25.33
2022-07-28T09:40:11.186Z,25.59
2022-07-28T09:41:11.274Z,25.85
2022-07-28T09:42:11.401Z,26.22
2022-07-28T09:43:11.507Z,26.68
2022-07-28T09:44:11.918Z,27.04
2022-07-28T09:45:27.020Z,27.44
2022-07-28T09:46:12.863Z,27.79
2022-07-28T09:47:11.959Z,27.81
2022-07-28T09:48:12.162Z,27.91
2022-07-28T09:49:12.100Z,28.09
2022-07-28T09:50:11.989Z,28.40
2022-07-28T09:51:12.062Z,28.53
2022-07-28T09:52:12.162Z,28.18
2022-07-28T09:53:12.232Z,28.23
2022-07-28T09:54:12.705Z,28.50
2022-07-28T09:55:12.343Z,28.56
2022-07-28T09:56:12.411Z,28.62
2022-07-28T09:57:12.500Z,28.55
2022-07-28T09:58:12.576Z,28.27
2022-07-28T09:59:14.549Z,28.10
2022-07-28T10:00:12.713Z,28.10
2022-07-28T10:01:12.883Z,28.01
2022-07-28T10:02:13.009Z,27.86
2022-07-28T10:03:12.974Z,27.97
2022-07-28T10:04:12.935Z,27.75
2022-07-28T10:05:12.999Z,27.71
2022-07-28T10:06:13.070Z,27.57
2022-07-28T10:07:13.159Z,27.26
2022-07-28T10:08:13.224Z,27.07
2022-07-28T10:09:13.288Z,27.16
2022-07-28T10:10:13.353Z,27.34
2022-07-28T10:11:13.428Z,27.37
2022-07-28T10:12:13.508Z,27.47
2022-07-28T10:13:13.575Z,27.48
2022-07-28T10:14:14.024Z,27.57
2022-07-28T10:15:13.736Z,27.95
2022-07-28T10:16:13.839Z,28.22
2022-07-28T10:17:13.811Z,28.67
2022-07-28T10:18:13.878Z,28.67
2022-07-28T10:19:13.958Z,28.41
2022-07-28T10:20:13.989Z,27.83
2022-07-28T10:21:14.052Z,27.34
2022-07-28T10:22:14.118Z,27.11
2022-07-28T10:23:14.175Z,26.55
2022-07-28T10:24:14.622Z,25.89
2022-07-28T10:25:14.253Z,25.49
2022-07-28T10:26:14.320Z,24.97
2022-07-28T10:27:14.408Z,25.07
2022-07-28T10:28:14.480Z,25.46
2022-07-28T10:29:14.563Z,25.66
2022-07-28T10:30:14.665Z,25.89
2022-07-28T10:31:14.804Z,26.39
2022-07-28T10:32:14.781Z,26.91
2022-07-28T10:33:14.861Z,26.91
2022-07-28T10:34:16.476Z,27.34
2022-07-28T10:35:14.946Z,27.83
2022-07-28T10:36:15.035Z,28.33
2022-07-28T10:37:15.122Z,28.75
2022-07-28T10:38:15.185Z,29.18
2022-07-28T10:39:15.251Z,29.58
2022-07-28T10:40:15.349Z,29.98
2022-07-28T10:41:15.423Z,30.36
2022-07-28T10:42:15.497Z,30.61
2022-07-28T10:43:15.541Z,30.48
2022-07-28T10:44:16.041Z,30.76
2022-07-28T10:45:15.639Z,31.08
2022-07-28T10:46:16.649Z,31.36
2022-07-28T10:47:18.321Z,31.15
2022-07-28T10:48:15.649Z,30.63
2022-07-28T10:49:15.683Z,30.06
2022-07-28T10:50:15.736Z,29.94
2022-07-28T10:51:15.741Z,29.67
2022-07-28T10:52:37.374Z,29.18
2022-07-28T10:53:16.795Z,28.92
2022-07-28T10:54:17.770Z,28.70
2022-07-28T10:55:16.857Z,27.76
2022-07-28T10:56:15.922Z,26.92
2022-07-28T10:57:15.913Z,27.30
2022-07-28T10:58:15.859Z,27.38
2022-07-28T10:59:15.910Z,27.45
2022-07-28T11:00:24.445Z,27.60
2022-07-28T11:01:32.527Z,27.98
2022-07-28T11:02:17.116Z,28.03
2022-07-28T11:03:17.097Z,27.78
2022-07-28T11:04:16.270Z,27.60
2022-07-28T11:05:16.082Z,27.44
2022-07-28T11:06:16.144Z,27.13
2022-07-28T11:07:16.199Z,26.67
2022-07-28T11:08:16.274Z,27.08
2022-07-28T11:09:16.435Z,27.73
2022-07-28T11:10:16.441Z,27.38
2022-07-28T11:11:16.514Z,27.34
2022-07-28T11:12:16.743Z,27.29
2022-07-28T11:13:16.654Z,27.72
2022-07-28T11:14:17.016Z,27.83
2022-07-28T11:15:18.860Z,27.67
2022-07-28T11:16:16.924Z,27.66
2022-07-28T11:17:17.004Z,27.68
2022-07-28T11:18:18.010Z,28.27
2022-07-28T11:19:39.990Z,29.10
2022-07-28T11:20:27.537Z,29.39
2022-07-28T11:21:18.118Z,29.55
2022-07-28T11:22:18.315Z,28.90
2022-07-28T11:23:17.264Z,28.75
2022-07-28T11:24:18.100Z,29.10
2022-07-28T11:25:21.116Z,29.67
2022-07-28T11:26:17.435Z,30.01
2022-07-28T11:27:17.510Z,30.54
2022-07-28T11:28:17.572Z,31.00
2022-07-28T11:29:17.649Z,31.42
2022-07-28T11:30:17.820Z,31.60
2022-07-28T11:31:17.820Z,31.55
2022-07-28T11:32:17.798Z,31.59
2022-07-28T11:33:17.859Z,31.62
2022-07-28T11:34:18.163Z,32.02
2022-07-28T11:35:17.964Z,31.97
2022-07-28T11:36:18.017Z,31.81
2022-07-28T11:37:18.070Z,31.92
2022-07-28T11:38:18.120Z,31.86
2022-07-28T11:39:18.208Z,31.79
2022-07-28T11:40:18.188Z,31.67
2022-07-28T11:41:18.255Z,31.33
2022-07-28T11:42:18.295Z,31.30
2022-07-28T11:43:20.711Z,31.48
2022-07-28T11:44:18.431Z,31.81
2022-07-28T11:45:19.427Z,31.54
2022-07-28T11:46:18.503Z,31.37
2022-07-28T11:47:18.540Z,31.79
2022-07-28T11:48:18.592Z,32.39
2022-07-28T11:49:18.754Z,32.57
2022-07-28T11:50:18.744Z,31.74
2022-07-28T11:51:18.799Z,31.60
2022-07-28T11:52:19.519Z,31.25
2022-07-28T11:53:18.918Z,30.98
2022-07-28T11:54:18.994Z,31.13
2022-07-28T11:55:19.059Z,31.26
2022-07-28T11:56:19.133Z,31.66
2022-07-28T11:57:19.199Z,32.04
2022-07-28T11:58:19.263Z,32.20
2022-07-28T11:59:19.359Z,32.12
2022-07-28T12:00:19.424Z,32.22
2022-07-28T12:01:19.645Z,31.60
2022-07-28T12:02:19.581Z,30.48
2022-07-28T12:03:19.591Z,30.32
2022-07-28T12:04:19.918Z,30.10
2022-07-28T12:05:19.751Z,29.62
2022-07-28T12:06:27.375Z,29.09
2022-07-28T12:07:20.851Z,29.37
2022-07-28T12:08:19.960Z,29.87
2022-07-28T12:09:25.260Z,30.13
2022-07-28T12:10:44.163Z,30.49
2022-07-28T12:11:21.100Z,30.83
2022-07-28T12:12:20.175Z,30.39
2022-07-28T12:13:20.282Z,29.50
2022-07-28T12:14:20.400Z,29.22
2022-07-28T12:15:20.303Z,28.78
2022-07-28T12:16:20.436Z,28.38
2022-07-28T12:17:20.454Z,28.86
2022-07-28T12:18:20.546Z,28.47
2022-07-28T12:19:20.683Z,27.85
2022-07-28T12:20:20.762Z,27.57
2022-07-28T12:21:20.893Z,27.50
2022-07-28T12:22:21.000Z,26.48
2022-07-28T12:23:21.131Z,25.88
2022-07-28T12:24:21.799Z,25.37
2022-07-28T12:25:21.272Z,25.31
2022-07-28T12:26:21.415Z,25.26
2022-07-28T12:27:23.975Z,25.71
2022-07-28T12:28:21.602Z,26.49
2022-07-28T12:29:21.737Z,27.20
2022-07-28T12:30:21.850Z,27.67
2022-07-28T12:31:22.046Z,28.06
2022-07-28T12:32:22.142Z,28.83
2022-07-28T12:33:26.094Z,29.30
2022-07-28T12:34:24.369Z,29.83
2022-07-28T12:35:23.436Z,29.84
2022-07-28T12:36:22.555Z,29.47
2022-07-28T12:37:22.657Z,28.82
2022-07-28T12:38:22.795Z,28.23
2022-07-28T12:39:22.914Z,28.33
2022-07-28T12:40:27.442Z,28.10
2022-07-28T12:41:23.130Z,27.76
2022-07-28T12:42:23.244Z,27.44
2022-07-28T12:43:23.373Z,27.97
2022-07-28T12:44:23.483Z,28.37
2022-07-28T12:45:23.605Z,28.50
2022-07-28T12:46:25.116Z,29.27
2022-07-28T12:47:23.824Z,29.30
2022-07-28T12:48:23.938Z,29.76
2022-07-28T12:49:24.127Z,29.90
2022-07-28T12:50:24.245Z,29.87
2022-07-28T12:51:24.366Z,30.32
2022-07-28T12:52:24.526Z,29.58
2022-07-28T12:53:24.629Z,29.30
2022-07-28T12:54:24.734Z,29.84